sensor_id;sensor_type;location;lat;lon;timestamp;pressure;altitude;pressure_sealevel;temperature;humidity
35248;BME280;21380;52.194;20.520;2024-01-15T00:00:44;98323.38;;;11.60;50.13
35248;BME280;21380;52.194;20.520;2024-01-15T00:03:29;98321.66;;;11.58;50.60
35248;BME280;21380;52.194;20.520;2024-01-15T00:05:55;98313.91;;;11.58;50.52
35248;BME280;21380;52.194;20.520;2024-01-15T00:08:21;98312.19;;;11.60;50.50
35248;BME280;21380;52.194;20.520;2024-01-15T00:10:47;98301.88;;;11.58;50.53
35248;BME280;21380;52.194;20.520;2024-01-15T00:13:13;98302.72;;;11.60;50.13
35248;BME280;21380;52.194;20.520;2024-01-15T00:15:39;98298.44;;;11.59;50.03
35248;BME280;21380;52.194;20.520;2024-01-15T00:18:05;98293.28;;;11.61;50.30
35248;BME280;21380;52.194;20.520;2024-01-15T00:20:31;98286.38;;;11.60;49.85
35248;BME280;21380;52.194;20.520;2024-01-15T00:22:57;98293.28;;;11.59;50.32
35248;BME280;21380;52.194;20.520;2024-01-15T00:25:23;98279.47;;;11.57;50.15
35248;BME280;21380;52.194;20.520;2024-01-15T00:27:49;98276.03;;;11.57;50.57
35248;BME280;21380;52.194;20.520;2024-01-15T00:30:15;98285.53;;;11.59;50.23
35248;BME280;21380;52.194;20.520;2024-01-15T00:32:41;98271.72;;;11.54;50.20
35248;BME280;21380;52.194;20.520;2024-01-15T00:35:07;98257.09;;;11.55;50.01
35248;BME280;21380;52.194;20.520;2024-01-15T00:37:33;98268.28;;;11.60;50.20
35248;BME280;21380;52.194;20.520;2024-01-15T00:39:59;98265.72;;;11.60;50.23
35248;BME280;21380;52.194;20.520;2024-01-15T00:42:25;98263.13;;;11.58;50.03
35248;BME280;21380;52.194;20.520;2024-01-15T00:44:51;98253.66;;;11.57;50.58
35248;BME280;21380;52.194;20.520;2024-01-15T00:47:18;98249.34;;;11.58;50.42
35248;BME280;21380;52.194;20.520;2024-01-15T00:49:44;98258.84;;;11.62;50.20
35248;BME280;21380;52.194;20.520;2024-01-15T00:52:10;98263.13;;;11.63;50.17
35248;BME280;21380;52.194;20.520;2024-01-15T00:54:36;98247.63;;;11.61;50.49
35248;BME280;21380;52.194;20.520;2024-01-15T00:57:02;98254.53;;;11.64;50.33
35248;BME280;21380;52.194;20.520;2024-01-15T00:59:28;98248.50;;;11.62;50.39
35248;BME280;21380;52.194;20.520;2024-01-15T01:01:54;98244.22;;;11.61;50.28
35248;BME280;21380;52.194;20.520;2024-01-15T01:04:20;98241.59;;;11.64;50.13
35248;BME280;21380;52.194;20.520;2024-01-15T01:06:46;98233.88;;;11.59;50.15
35248;BME280;21380;52.194;20.520;2024-01-15T01:09:12;98231.28;;;11.64;50.68
35248;BME280;21380;52.194;20.520;2024-01-15T01:11:38;98231.28;;;11.58;50.17
35248;BME280;21380;52.194;20.520;2024-01-15T01:14:04;98237.31;;;11.61;50.68
35248;BME280;21380;52.194;20.520;2024-01-15T01:16:29;98230.41;;;11.60;50.32
35248;BME280;21380;52.194;20.520;2024-01-15T01:18:57;98226.09;;;11.58;50.74
35248;BME280;21380;52.194;20.520;2024-01-15T01:21:24;98220.09;;;11.57;50.28
35248;BME280;21380;52.194;20.520;2024-01-15T01:23:50;98230.44;;;11.62;50.52
35248;BME280;21380;52.194;20.520;2024-01-15T01:26:17;98226.13;;;11.61;50.54
35248;BME280;21380;52.194;20.520;2024-01-15T01:28:43;98208.03;;;11.58;50.26
35248;BME280;21380;52.194;20.520;2024-01-15T01:31:09;98202.03;;;11.56;50.72
35248;BME280;21380;52.194;20.520;2024-01-15T01:33:35;98204.63;;;11.62;50.58
35248;BME280;21380;52.194;20.520;2024-01-15T01:36:00;98199.44;;;11.62;50.40
35248;BME280;21380;52.194;20.520;2024-01-15T01:38:26;98196.88;;;11.62;50.75
35248;BME280;21380;52.194;20.520;2024-01-15T01:40:52;98193.41;;;11.61;50.20
35248;BME280;21380;52.194;20.520;2024-01-15T01:43:18;98189.97;;;11.62;50.68
35248;BME280;21380;52.194;20.520;2024-01-15T01:45:44;98183.94;;;11.62;50.57
35248;BME280;21380;52.194;20.520;2024-01-15T01:48:10;98174.47;;;11.64;50.56
35248;BME280;21380;52.194;20.520;2024-01-15T01:50:36;98173.63;;;11.63;50.31
35248;BME280;21380;52.194;20.520;2024-01-15T01:53:02;98173.63;;;11.62;50.49
35248;BME280;21380;52.194;20.520;2024-01-15T01:55:31;98148.66;;;11.53;50.43
35248;BME280;21380;52.194;20.520;2024-01-15T01:57:59;98159.84;;;11.61;50.15
35248;BME280;21380;52.194;20.520;2024-01-15T02:00:25;98155.53;;;11.62;50.67
35248;BME280;21380;52.194;20.520;2024-01-15T02:02:51;98152.94;;;11.60;50.37
35248;BME280;21380;52.194;20.520;2024-01-15T02:05:18;98153.81;;;11.64;50.48
35248;BME280;21380;52.194;20.520;2024-01-15T02:07:45;98128.84;;;11.52;50.30
35248;BME280;21380;52.194;20.520;2024-01-15T02:10:11;98151.25;;;11.61;50.36
35248;BME280;21380;52.194;20.520;2024-01-15T02:12:37;98147.78;;;11.63;50.57
35248;BME280;21380;52.194;20.520;2024-01-15T02:15:02;98143.50;;;11.61;50.18
35248;BME280;21380;52.194;20.520;2024-01-15T02:17:29;98129.69;;;11.60;50.28
35248;BME280;21380;52.194;20.520;2024-01-15T02:19:54;98133.16;;;11.64;50.36
35248;BME280;21380;52.194;20.520;2024-01-15T02:22:20;98128.84;;;11.63;50.26
35248;BME280;21380;52.194;20.520;2024-01-15T02:24:46;98117.69;;;11.59;50.35
35248;BME280;21380;52.194;20.520;2024-01-15T02:27:12;98124.56;;;11.62;50.38
35248;BME280;21380;52.194;20.520;2024-01-15T02:29:38;98119.41;;;11.62;50.22
35248;BME280;21380;52.194;20.520;2024-01-15T02:32:05;98109.91;;;11.61;50.18
35248;BME280;21380;52.194;20.520;2024-01-15T02:34:32;98109.91;;;11.64;50.21
35248;BME280;21380;52.194;20.520;2024-01-15T02:36:58;98103.00;;;11.63;50.43
35248;BME280;21380;52.194;20.520;2024-01-15T02:39:24;98098.72;;;11.57;50.02
35248;BME280;21380;52.194;20.520;2024-01-15T02:41:50;98102.16;;;11.64;50.26
35248;BME280;21380;52.194;20.520;2024-01-15T02:44:15;98102.16;;;11.65;50.63
35248;BME280;21380;52.194;20.520;2024-01-15T02:46:41;98091.00;;;11.62;50.49
35248;BME280;21380;52.194;20.520;2024-01-15T02:49:07;98091.81;;;11.64;50.22
35248;BME280;21380;52.194;20.520;2024-01-15T02:51:33;98084.94;;;11.63;50.16
35248;BME280;21380;52.194;20.520;2024-01-15T02:53:59;98081.50;;;11.64;50.35
35248;BME280;21380;52.194;20.520;2024-01-15T02:56:25;98084.97;;;11.64;50.41
35248;BME280;21380;52.194;20.520;2024-01-15T02:58:51;98074.63;;;11.64;50.28
35248;BME280;21380;52.194;20.520;2024-01-15T03:01:19;98054.81;;;11.66;50.11
35248;BME280;21380;52.194;20.520;2024-01-15T03:03:45;98059.13;;;11.64;50.41
35248;BME280;21380;52.194;20.520;2024-01-15T03:06:11;98053.97;;;11.64;50.22
35248;BME280;21380;52.194;20.520;2024-01-15T03:08:37;98049.66;;;11.65;49.99
35248;BME280;21380;52.194;20.520;2024-01-15T03:11:03;98047.06;;;11.65;50.17
35248;BME280;21380;52.194;20.520;2024-01-15T03:13:29;98042.78;;;11.62;50.66
35248;BME280;21380;52.194;20.520;2024-01-15T03:15:54;98034.19;;;11.62;50.54
35248;BME280;21380;52.194;20.520;2024-01-15T03:18:20;98025.56;;;11.61;50.48
35248;BME280;21380;52.194;20.520;2024-01-15T03:20:46;98029.00;;;11.65;50.36
35248;BME280;21380;52.194;20.520;2024-01-15T03:23:12;98016.94;;;11.62;50.35
35248;BME280;21380;52.194;20.520;2024-01-15T03:25:38;98033.28;;;11.66;50.51
35248;BME280;21380;52.194;20.520;2024-01-15T03:28:04;98024.69;;;11.62;50.37
35248;BME280;21380;52.194;20.520;2024-01-15T03:30:30;98029.84;;;11.67;50.57
35248;BME280;21380;52.194;20.520;2024-01-15T03:32:56;98028.97;;;11.66;50.62
35248;BME280;21380;52.194;20.520;2024-01-15T03:35:22;98022.09;;;11.64;50.54
35248;BME280;21380;52.194;20.520;2024-01-15T03:37:47;98019.50;;;11.64;50.25
35248;BME280;21380;52.194;20.520;2024-01-15T03:40:14;98008.34;;;11.62;50.60
35248;BME280;21380;52.194;20.520;2024-01-15T03:42:39;98001.44;;;11.58;50.21
35248;BME280;21380;52.194;20.520;2024-01-15T03:45:06;98016.09;;;11.63;50.60
35248;BME280;21380;52.194;20.520;2024-01-15T03:47:32;97998.84;;;11.65;50.07
35248;BME280;21380;52.194;20.520;2024-01-15T03:49:58;98017.81;;;11.66;50.06
35248;BME280;21380;52.194;20.520;2024-01-15T03:52:23;98004.03;;;11.67;50.40
35248;BME280;21380;52.194;20.520;2024-01-15T03:54:49;97994.56;;;11.66;50.32
35248;BME280;21380;52.194;20.520;2024-01-15T03:57:15;97998.88;;;11.67;50.35
35248;BME280;21380;52.194;20.520;2024-01-15T03:59:41;97986.81;;;11.63;50.39
35248;BME280;21380;52.194;20.520;2024-01-15T04:02:07;97995.44;;;11.68;50.42
35248;BME280;21380;52.194;20.520;2024-01-15T04:04:33;97982.50;;;11.65;50.33
35248;BME280;21380;52.194;20.520;2024-01-15T04:06:59;97979.06;;;11.63;50.05
35248;BME280;21380;52.194;20.520;2024-01-15T04:09:25;97978.22;;;11.67;50.30
35248;BME280;21380;52.194;20.520;2024-01-15T04:11:50;97974.75;;;11.66;50.32
35248;BME280;21380;52.194;20.520;2024-01-15T04:14:18;97971.31;;;11.64;50.21
35248;BME280;21380;52.194;20.520;2024-01-15T04:16:43;97959.25;;;11.65;50.51
35248;BME280;21380;52.194;20.520;2024-01-15T04:19:09;97958.41;;;11.61;50.48
35248;BME280;21380;52.194;20.520;2024-01-15T04:21:35;97964.44;;;11.65;50.47
35248;BME280;21380;52.194;20.520;2024-01-15T04:24:01;97951.53;;;11.63;50.12
35248;BME280;21380;52.194;20.520;2024-01-15T04:26:27;97944.63;;;11.64;50.24
35248;BME280;21380;52.194;20.520;2024-01-15T04:28:53;97940.31;;;11.63;50.30
35248;BME280;21380;52.194;20.520;2024-01-15T04:31:23;97940.31;;;11.63;50.00
35248;BME280;21380;52.194;20.520;2024-01-15T04:33:49;97941.19;;;11.63;50.12
35248;BME280;21380;52.194;20.520;2024-01-15T04:36:15;97936.06;;;11.62;50.32
35248;BME280;21380;52.194;20.520;2024-01-15T04:38:41;97933.44;;;11.63;50.20
35248;BME280;21380;52.194;20.520;2024-01-15T04:41:13;97923.97;;;11.64;50.16
35248;BME280;21380;52.194;20.520;2024-01-15T04:43:39;97916.25;;;11.61;50.07
35248;BME280;21380;52.194;20.520;2024-01-15T04:46:06;97922.28;;;11.60;50.10
35248;BME280;21380;52.194;20.520;2024-01-15T04:48:33;97927.44;;;11.60;50.28
35248;BME280;21380;52.194;20.520;2024-01-15T04:50:58;97925.72;;;11.57;50.08
35248;BME280;21380;52.194;20.520;2024-01-15T04:53:25;97919.69;;;11.60;49.85
35248;BME280;21380;52.194;20.520;2024-01-15T04:55:51;97929.19;;;11.59;50.37
35248;BME280;21380;52.194;20.520;2024-01-15T04:58:17;97922.28;;;11.58;50.29
35248;BME280;21380;52.194;20.520;2024-01-15T05:00:43;97920.53;;;11.60;49.85
35248;BME280;21380;52.194;20.520;2024-01-15T05:03:09;97910.22;;;11.60;50.39
35248;BME280;21380;52.194;20.520;2024-01-15T05:05:35;97907.63;;;11.59;50.05
35248;BME280;21380;52.194;20.520;2024-01-15T05:08:01;97906.78;;;11.57;49.74
35248;BME280;21380;52.194;20.520;2024-01-15T05:10:27;97905.91;;;11.58;50.05
35248;BME280;21380;52.194;20.520;2024-01-15T05:12:53;97907.63;;;11.59;50.15
35248;BME280;21380;52.194;20.520;2024-01-15T05:15:19;97908.50;;;11.58;50.01
35248;BME280;21380;52.194;20.520;2024-01-15T05:17:45;97911.94;;;11.60;49.87
35248;BME280;21380;52.194;20.520;2024-01-15T05:20:11;97910.22;;;11.60;49.80
35248;BME280;21380;52.194;20.520;2024-01-15T05:22:37;97891.28;;;11.60;49.94
35248;BME280;21380;52.194;20.520;2024-01-15T05:25:03;97895.59;;;11.58;50.10
35248;BME280;21380;52.194;20.520;2024-01-15T05:27:29;97901.63;;;11.58;50.12
35248;BME280;21380;52.194;20.520;2024-01-15T05:29:55;97902.47;;;11.59;49.75
35248;BME280;21380;52.194;20.520;2024-01-15T05:32:21;97893.88;;;11.57;49.90
35248;BME280;21380;52.194;20.520;2024-01-15T05:34:46;97893.00;;;11.58;50.06
35248;BME280;21380;52.194;20.520;2024-01-15T05:37:12;97902.47;;;11.59;49.83
35248;BME280;21380;52.194;20.520;2024-01-15T05:39:38;97905.06;;;11.59;49.68
35248;BME280;21380;52.194;20.520;2024-01-15T05:42:04;97888.72;;;11.55;49.74
35248;BME280;21380;52.194;20.520;2024-01-15T05:44:30;97886.13;;;11.57;50.23
35248;BME280;21380;52.194;20.520;2024-01-15T05:46:56;97888.72;;;11.58;49.81
35248;BME280;21380;52.194;20.520;2024-01-15T05:49:22;97881.84;;;11.57;49.90
35248;BME280;21380;52.194;20.520;2024-01-15T05:51:48;97875.81;;;11.54;49.88
35248;BME280;21380;52.194;20.520;2024-01-15T05:54:14;97877.50;;;11.58;50.12
35248;BME280;21380;52.194;20.520;2024-01-15T05:56:40;97878.38;;;11.57;49.94
35248;BME280;21380;52.194;20.520;2024-01-15T05:59:06;97872.34;;;11.58;49.83
35248;BME280;21380;52.194;20.520;2024-01-15T06:01:32;97875.78;;;11.57;49.80
35248;BME280;21380;52.194;20.520;2024-01-15T06:03:58;97876.69;;;11.56;49.62
35248;BME280;21380;52.194;20.520;2024-01-15T06:06:24;97857.78;;;11.50;49.91
35248;BME280;21380;52.194;20.520;2024-01-15T06:08:50;97871.53;;;11.56;50.17
35248;BME280;21380;52.194;20.520;2024-01-15T06:11:16;97870.63;;;11.57;49.70
35248;BME280;21380;52.194;20.520;2024-01-15T06:13:42;97868.94;;;11.52;50.17
35248;BME280;21380;52.194;20.520;2024-01-15T06:16:16;97868.91;;;11.59;50.08
35248;BME280;21380;52.194;20.520;2024-01-15T06:18:42;97862.03;;;11.58;50.17
35248;BME280;21380;52.194;20.520;2024-01-15T06:21:08;97862.88;;;11.57;50.15
35248;BME280;21380;52.194;20.520;2024-01-15T06:23:37;97864.59;;;11.61;49.96
35248;BME280;21380;52.194;20.520;2024-01-15T06:26:03;97862.91;;;11.58;50.13
35248;BME280;21380;52.194;20.520;2024-01-15T06:28:29;97863.75;;;11.57;50.06
35248;BME280;21380;52.194;20.520;2024-01-15T06:30:55;97865.47;;;11.58;50.09
35248;BME280;21380;52.194;20.520;2024-01-15T06:33:21;97862.03;;;11.58;49.71
35248;BME280;21380;52.194;20.520;2024-01-15T06:35:47;97846.56;;;11.53;49.84
35248;BME280;21380;52.194;20.520;2024-01-15T06:38:13;97843.94;;;11.58;49.84
35248;BME280;21380;52.194;20.520;2024-01-15T06:40:39;97844.81;;;11.60;49.99
35248;BME280;21380;52.194;20.520;2024-01-15T06:43:11;97851.69;;;11.58;49.39
35248;BME280;21380;52.194;20.520;2024-01-15T06:45:37;97844.81;;;11.58;49.64
35248;BME280;21380;52.194;20.520;2024-01-15T06:48:03;97843.09;;;11.59;49.94
35248;BME280;21380;52.194;20.520;2024-01-15T06:50:30;97842.22;;;11.60;49.90
35248;BME280;21380;52.194;20.520;2024-01-15T06:52:56;97843.09;;;11.59;49.63
35248;BME280;21380;52.194;20.520;2024-01-15T06:55:22;97846.53;;;11.59;49.73
35248;BME280;21380;52.194;20.520;2024-01-15T06:57:47;97855.13;;;11.60;49.73
35248;BME280;21380;52.194;20.520;2024-01-15T07:00:14;97853.41;;;11.60;49.50
35248;BME280;21380;52.194;20.520;2024-01-15T07:02:40;97855.13;;;11.60;49.47
35248;BME280;21380;52.194;20.520;2024-01-15T07:05:06;97854.28;;;11.61;49.92
35248;BME280;21380;52.194;20.520;2024-01-15T07:07:32;97831.97;;;11.50;49.52
35248;BME280;21380;52.194;20.520;2024-01-15T07:09:58;97845.66;;;11.59;49.50
35248;BME280;21380;52.194;20.520;2024-01-15T07:12:24;97846.53;;;11.56;49.70
35248;BME280;21380;52.194;20.520;2024-01-15T07:14:50;97843.09;;;11.54;49.69
35248;BME280;21380;52.194;20.520;2024-01-15T07:17:16;97846.53;;;11.61;49.86
35248;BME280;21380;52.194;20.520;2024-01-15T07:19:42;97850.84;;;11.59;50.06
35248;BME280;21380;52.194;20.520;2024-01-15T07:22:08;97843.13;;;11.52;49.63
35248;BME280;21380;52.194;20.520;2024-01-15T07:24:34;97867.19;;;11.61;49.50
35248;BME280;21380;52.194;20.520;2024-01-15T07:27:00;97876.66;;;11.62;49.55
35248;BME280;21380;52.194;20.520;2024-01-15T07:29:26;97872.34;;;11.61;49.76
35248;BME280;21380;52.194;20.520;2024-01-15T07:31:52;97871.50;;;11.62;49.89
35248;BME280;21380;52.194;20.520;2024-01-15T07:34:19;97870.66;;;11.58;49.66
35248;BME280;21380;52.194;20.520;2024-01-15T07:36:45;97868.91;;;11.57;49.66
35248;BME280;21380;52.194;20.520;2024-01-15T07:39:11;97868.91;;;11.60;49.64
35248;BME280;21380;52.194;20.520;2024-01-15T07:41:37;97878.34;;;11.61;50.01
35248;BME280;21380;52.194;20.520;2024-01-15T07:44:03;97881.81;;;11.60;49.63
35248;BME280;21380;52.194;20.520;2024-01-15T07:46:29;97887.00;;;11.57;49.79
35248;BME280;21380;52.194;20.520;2024-01-15T07:48:55;97879.22;;;11.60;49.58
35248;BME280;21380;52.194;20.520;2024-01-15T07:51:24;97879.22;;;11.59;49.69
35248;BME280;21380;52.194;20.520;2024-01-15T07:53:53;97883.53;;;11.60;50.15
35248;BME280;21380;52.194;20.520;2024-01-15T07:56:20;97875.81;;;11.58;49.92
35248;BME280;21380;52.194;20.520;2024-01-15T07:58:47;97887.00;;;11.57;49.55
35248;BME280;21380;52.194;20.520;2024-01-15T08:01:13;97868.06;;;11.54;49.82
35248;BME280;21380;52.194;20.520;2024-01-15T08:03:39;97864.66;;;11.53;49.95
35248;BME280;21380;52.194;20.520;2024-01-15T08:06:05;97874.97;;;11.51;49.63
35248;BME280;21380;52.194;20.520;2024-01-15T08:08:31;97870.63;;;11.55;49.83
35248;BME280;21380;52.194;20.520;2024-01-15T08:10:57;97878.41;;;11.54;50.14
35248;BME280;21380;52.194;20.520;2024-01-15T08:13:26;97877.53;;;11.55;50.07
35248;BME280;21380;52.194;20.520;2024-01-15T08:15:52;97876.69;;;11.52;49.57
35248;BME280;21380;52.194;20.520;2024-01-15T08:18:18;97873.25;;;11.50;50.04
35248;BME280;21380;52.194;20.520;2024-01-15T08:20:44;97893.03;;;11.53;49.62
35248;BME280;21380;52.194;20.520;2024-01-15T08:23:10;97890.44;;;11.51;49.60
35248;BME280;21380;52.194;20.520;2024-01-15T08:25:36;97893.03;;;11.51;49.72
35248;BME280;21380;52.194;20.520;2024-01-15T08:28:02;97898.22;;;11.50;49.87
35248;BME280;21380;52.194;20.520;2024-01-15T08:30:28;97896.50;;;11.52;50.08
35248;BME280;21380;52.194;20.520;2024-01-15T08:32:55;97892.16;;;11.52;49.76
35248;BME280;21380;52.194;20.520;2024-01-15T08:35:21;97884.44;;;11.52;49.79
35248;BME280;21380;52.194;20.520;2024-01-15T08:37:49;97889.56;;;11.54;50.16
35248;BME280;21380;52.194;20.520;2024-01-15T08:40:16;97901.63;;;11.55;50.15
35248;BME280;21380;52.194;20.520;2024-01-15T08:42:42;97884.41;;;11.54;50.07
35248;BME280;21380;52.194;20.520;2024-01-15T08:45:09;97893.06;;;11.48;49.95
35248;BME280;21380;52.194;20.520;2024-01-15T08:47:35;97892.19;;;11.49;50.12
35248;BME280;21380;52.194;20.520;2024-01-15T08:50:02;97896.47;;;11.54;50.24
35248;BME280;21380;52.194;20.520;2024-01-15T08:52:29;97905.94;;;11.55;49.85
35248;BME280;21380;52.194;20.520;2024-01-15T08:54:56;97892.16;;;11.56;49.99
35248;BME280;21380;52.194;20.520;2024-01-15T08:57:22;97898.19;;;11.56;50.05
35248;BME280;21380;52.194;20.520;2024-01-15T08:59:48;97899.91;;;11.56;49.62
35248;BME280;21380;52.194;20.520;2024-01-15T09:02:15;97893.03;;;11.51;49.54
35248;BME280;21380;52.194;20.520;2024-01-15T09:04:40;97885.28;;;11.55;49.99
35248;BME280;21380;52.194;20.520;2024-01-15T09:07:07;97904.22;;;11.55;49.81
35248;BME280;21380;52.194;20.520;2024-01-15T09:09:33;97898.19;;;11.56;49.84
35248;BME280;21380;52.194;20.520;2024-01-15T09:12:00;97899.03;;;11.57;49.40
35248;BME280;21380;52.194;20.520;2024-01-15T09:14:26;97890.47;;;11.50;49.44
35248;BME280;21380;52.194;20.520;2024-01-15T09:16:54;97899.91;;;11.56;49.79
35248;BME280;21380;52.194;20.520;2024-01-15T09:19:21;97883.56;;;11.52;49.69
35248;BME280;21380;52.194;20.520;2024-01-15T09:21:47;97880.13;;;11.55;49.71
35248;BME280;21380;52.194;20.520;2024-01-15T09:24:13;97881.00;;;11.52;49.32
35248;BME280;21380;52.194;20.520;2024-01-15T09:26:39;97883.53;;;11.57;49.31
35248;BME280;21380;52.194;20.520;2024-01-15T09:29:05;97888.75;;;11.50;49.59
35248;BME280;21380;52.194;20.520;2024-01-15T09:31:31;97894.75;;;11.52;49.51
35248;BME280;21380;52.194;20.520;2024-01-15T09:33:57;97890.44;;;11.55;49.28
35248;BME280;21380;52.194;20.520;2024-01-15T09:36:26;97889.56;;;11.54;49.18
35248;BME280;21380;52.194;20.520;2024-01-15T09:38:52;97882.69;;;11.51;49.14
35248;BME280;21380;52.194;20.520;2024-01-15T09:41:18;97896.47;;;11.54;49.36
35248;BME280;21380;52.194;20.520;2024-01-15T09:43:44;97892.19;;;11.49;49.51
35248;BME280;21380;52.194;20.520;2024-01-15T09:46:11;97896.47;;;11.54;49.42
35248;BME280;21380;52.194;20.520;2024-01-15T09:48:37;97876.69;;;11.52;49.35
35248;BME280;21380;52.194;20.520;2024-01-15T09:51:05;97887.00;;;11.54;49.07
35248;BME280;21380;52.194;20.520;2024-01-15T09:53:32;97894.75;;;11.54;49.15
35248;BME280;21380;52.194;20.520;2024-01-15T09:56:02;97888.72;;;11.54;48.70
35248;BME280;21380;52.194;20.520;2024-01-15T09:58:28;97882.72;;;11.55;49.17
35248;BME280;21380;52.194;20.520;2024-01-15T10:00:56;97875.84;;;11.52;49.32
35248;BME280;21380;52.194;20.520;2024-01-15T10:03:22;97881.00;;;11.52;48.89
35248;BME280;21380;52.194;20.520;2024-01-15T10:05:49;97881.84;;;11.52;49.26
35248;BME280;21380;52.194;20.520;2024-01-15T10:08:15;97878.41;;;11.54;48.96
35248;BME280;21380;52.194;20.520;2024-01-15T10:10:41;97876.69;;;11.52;49.21
35248;BME280;21380;52.194;20.520;2024-01-15T10:13:07;97873.25;;;11.54;48.93
35248;BME280;21380;52.194;20.520;2024-01-15T10:15:38;97879.28;;;11.49;49.12
35248;BME280;21380;52.194;20.520;2024-01-15T10:18:05;97871.53;;;11.49;48.98
35248;BME280;21380;52.194;20.520;2024-01-15T10:20:33;97877.53;;;11.55;48.92
35248;BME280;21380;52.194;20.520;2024-01-15T10:23:00;97860.34;;;11.52;49.07
35248;BME280;21380;52.194;20.520;2024-01-15T10:25:26;97864.63;;;11.55;48.64
35248;BME280;21380;52.194;20.520;2024-01-15T10:28:04;97880.09;;;11.56;48.64
35248;BME280;21380;52.194;20.520;2024-01-15T10:30:31;97872.34;;;11.58;48.78
35248;BME280;21380;52.194;20.520;2024-01-15T10:33:02;97878.38;;;11.60;48.67
35248;BME280;21380;52.194;20.520;2024-01-15T10:35:33;97873.22;;;11.55;49.05
35248;BME280;21380;52.194;20.520;2024-01-15T10:38:05;97876.66;;;11.59;48.86
35248;BME280;21380;52.194;20.520;2024-01-15T10:40:32;97879.25;;;11.57;48.90
35248;BME280;21380;52.194;20.520;2024-01-15T10:42:57;97885.25;;;11.58;48.95
35248;BME280;21380;52.194;20.520;2024-01-15T10:45:23;97875.81;;;11.58;48.88
35248;BME280;21380;52.194;20.520;2024-01-15T10:47:50;97875.78;;;11.57;48.60
35248;BME280;21380;52.194;20.520;2024-01-15T10:50:16;97878.38;;;11.60;49.04
35248;BME280;21380;52.194;20.520;2024-01-15T10:52:42;97886.97;;;11.60;48.99
35248;BME280;21380;52.194;20.520;2024-01-15T10:55:11;97868.91;;;11.60;48.56
35248;BME280;21380;52.194;20.520;2024-01-15T10:57:37;97866.34;;;11.57;48.94
35248;BME280;21380;52.194;20.520;2024-01-15T11:00:05;97870.66;;;11.58;48.77
35248;BME280;21380;52.194;20.520;2024-01-15T11:02:32;97860.31;;;11.58;49.00
35248;BME280;21380;52.194;20.520;2024-01-15T11:05:00;97861.16;;;11.60;48.70
35248;BME280;21380;52.194;20.520;2024-01-15T11:07:26;97859.44;;;11.61;48.71
35248;BME280;21380;52.194;20.520;2024-01-15T11:09:52;97852.56;;;11.58;48.94
35248;BME280;21380;52.194;20.520;2024-01-15T11:12:18;97860.28;;;11.61;48.86
35248;BME280;21380;52.194;20.520;2024-01-15T11:14:47;97846.53;;;11.61;48.75
35248;BME280;21380;52.194;20.520;2024-01-15T11:17:13;97856.84;;;11.61;49.01
35248;BME280;21380;52.194;20.520;2024-01-15T11:19:47;97854.28;;;11.61;48.68
35248;BME280;21380;52.194;20.520;2024-01-15T11:25:02;97856.00;;;11.59;48.59
35248;BME280;21380;52.194;20.520;2024-01-15T11:30:08;97859.44;;;11.56;48.87
35248;BME280;21380;52.194;20.520;2024-01-15T11:32:38;97848.25;;;11.57;48.61
35248;BME280;21380;52.194;20.520;2024-01-15T11:35:09;97843.97;;;11.56;48.97
35248;BME280;21380;52.194;20.520;2024-01-15T11:42:58;97857.69;;;11.61;48.74
35248;BME280;21380;52.194;20.520;2024-01-15T11:45:24;97846.53;;;11.61;48.38
35248;BME280;21380;52.194;20.520;2024-01-15T11:48:13;97843.06;;;11.60;48.43
35248;BME280;21380;52.194;20.520;2024-01-15T11:50:49;97843.09;;;11.62;48.79
35248;BME280;21380;52.194;20.520;2024-01-15T11:53:17;97834.47;;;11.60;48.35
35248;BME280;21380;52.194;20.520;2024-01-15T11:55:47;97843.09;;;11.59;48.35
35248;BME280;21380;52.194;20.520;2024-01-15T11:58:14;97834.44;;;11.63;48.70
35248;BME280;21380;52.194;20.520;2024-01-15T12:00:44;97841.34;;;11.64;48.53
35248;BME280;21380;52.194;20.520;2024-01-15T12:03:10;97821.56;;;11.57;48.29
35248;BME280;21380;52.194;20.520;2024-01-15T12:05:38;97819.84;;;11.59;48.76
35248;BME280;21380;52.194;20.520;2024-01-15T12:08:04;97829.31;;;11.64;48.40
35248;BME280;21380;52.194;20.520;2024-01-15T12:10:40;97838.75;;;11.65;48.35
35248;BME280;21380;52.194;20.520;2024-01-15T12:13:11;97840.47;;;11.65;48.56
35248;BME280;21380;52.194;20.520;2024-01-15T12:15:39;97842.19;;;11.63;48.39
35248;BME280;21380;52.194;20.520;2024-01-15T12:18:10;97832.75;;;11.59;48.30
35248;BME280;21380;52.194;20.520;2024-01-15T12:20:36;97845.63;;;11.65;48.81
35248;BME280;21380;52.194;20.520;2024-01-15T12:23:02;97837.88;;;11.65;48.82
35248;BME280;21380;52.194;20.520;2024-01-15T12:25:36;97838.75;;;11.64;48.39
35248;BME280;21380;52.194;20.520;2024-01-15T12:28:03;97840.47;;;11.65;48.48
35248;BME280;21380;52.194;20.520;2024-01-15T12:30:30;97835.31;;;11.65;48.35
35248;BME280;21380;52.194;20.520;2024-01-15T12:33:02;97830.13;;;11.66;48.68
35248;BME280;21380;52.194;20.520;2024-01-15T12:35:29;97833.59;;;11.62;48.61
35248;BME280;21380;52.194;20.520;2024-01-15T12:37:55;97819.84;;;11.62;48.49
35248;BME280;21380;52.194;20.520;2024-01-15T12:40:23;97829.28;;;11.67;48.29
35248;BME280;21380;52.194;20.520;2024-01-15T12:42:49;97842.19;;;11.66;48.61
35248;BME280;21380;52.194;20.520;2024-01-15T12:45:15;97852.53;;;11.66;48.40
35248;BME280;21380;52.194;20.520;2024-01-15T12:47:41;97859.44;;;11.62;48.37
35248;BME280;21380;52.194;20.520;2024-01-15T12:50:12;97854.28;;;11.61;48.71
35248;BME280;21380;52.194;20.520;2024-01-15T12:52:40;97849.94;;;11.63;48.58
35248;BME280;21380;52.194;20.520;2024-01-15T12:55:08;97845.66;;;11.62;48.96
35248;BME280;21380;52.194;20.520;2024-01-15T12:57:35;97842.22;;;11.61;49.04